sensor_id;sensor_type;location;lat;lon;timestamp;P1;durP1;ratioP1;P2;durP2;ratioP2
68284;SDS011;55114;52.052;5.238;2023-04-16T00:02:01;8.98;;;1.85;;
68284;SDS011;55114;52.052;5.238;2023-04-16T00:04:29;5.60;;;2.10;;
68284;SDS011;55114;52.052;5.238;2023-04-16T00:06:56;7.03;;;2.05;;
68284;SDS011;55114;52.052;5.238;2023-04-16T00:09:23;7.72;;;2.35;;
68284;SDS011;55114;52.052;5.238;2023-04-16T00:11:51;7.13;;;2.17;;
68284;SDS011;55114;52.052;5.238;2023-04-16T00:14:18;6.18;;;1.80;;
68284;SDS011;55114;52.052;5.238;2023-04-16T00:16:45;8.07;;;1.92;;
68284;SDS011;55114;52.052;5.238;2023-04-16T00:19:12;7.18;;;1.98;;
68284;SDS011;55114;52.052;5.238;2023-04-16T00:21:40;9.07;;;2.08;;
68284;SDS011;55114;52.052;5.238;2023-04-16T00:24:07;8.00;;;1.98;;
68284;SDS011;55114;52.052;5.238;2023-04-16T00:26:34;7.47;;;2.13;;
68284;SDS011;55114;52.052;5.238;2023-04-16T00:29:01;6.57;;;2.20;;
68284;SDS011;55114;52.052;5.238;2023-04-16T00:31:30;5.25;;;1.55;;
68284;SDS011;55114;52.052;5.238;2023-04-16T00:33:57;7.38;;;1.92;;
68284;SDS011;55114;52.052;5.238;2023-04-16T00:36:25;5.68;;;2.13;;
68284;SDS011;55114;52.052;5.238;2023-04-16T00:38:53;6.05;;;1.73;;
68284;SDS011;55114;52.052;5.238;2023-04-16T00:41:20;7.30;;;2.10;;
68284;SDS011;55114;52.052;5.238;2023-04-16T00:43:48;7.63;;;2.00;;
68284;SDS011;55114;52.052;5.238;2023-04-16T00:46:16;6.30;;;1.80;;
68284;SDS011;55114;52.052;5.238;2023-04-16T00:48:45;4.15;;;1.98;;
68284;SDS011;55114;52.052;5.238;2023-04-16T00:51:12;5.38;;;1.80;;
68284;SDS011;55114;52.052;5.238;2023-04-16T00:53:39;5.80;;;2.05;;
68284;SDS011;55114;52.052;5.238;2023-04-16T00:56:07;7.15;;;2.17;;
68284;SDS011;55114;52.052;5.238;2023-04-16T00:58:35;6.72;;;1.80;;
68284;SDS011;55114;52.052;5.238;2023-04-16T01:01:02;4.28;;;1.60;;
68284;SDS011;55114;52.052;5.238;2023-04-16T01:06:03;6.43;;;1.85;;
68284;SDS011;55114;52.052;5.238;2023-04-16T01:08:31;7.38;;;1.80;;
68284;SDS011;55114;52.052;5.238;2023-04-16T01:10:58;6.07;;;1.90;;
68284;SDS011;55114;52.052;5.238;2023-04-16T01:13:25;6.22;;;2.20;;
68284;SDS011;55114;52.052;5.238;2023-04-16T01:15:52;6.05;;;1.80;;
68284;SDS011;55114;52.052;5.238;2023-04-16T01:18:20;5.10;;;1.80;;
68284;SDS011;55114;52.052;5.238;2023-04-16T01:20:48;5.28;;;2.10;;
68284;SDS011;55114;52.052;5.238;2023-04-16T01:23:15;5.75;;;1.98;;
68284;SDS011;55114;52.052;5.238;2023-04-16T01:25:45;6.20;;;2.08;;
68284;SDS011;55114;52.052;5.238;2023-04-16T01:28:13;8.15;;;2.33;;
68284;SDS011;55114;52.052;5.238;2023-04-16T01:30:40;6.10;;;2.70;;
68284;SDS011;55114;52.052;5.238;2023-04-16T01:33:09;8.52;;;2.50;;
68284;SDS011;55114;52.052;5.238;2023-04-16T01:35:37;7.22;;;2.40;;
68284;SDS011;55114;52.052;5.238;2023-04-16T01:38:04;9.75;;;2.40;;
68284;SDS011;55114;52.052;5.238;2023-04-16T01:40:36;9.13;;;2.65;;
68284;SDS011;55114;52.052;5.238;2023-04-16T01:43:03;7.70;;;2.63;;
68284;SDS011;55114;52.052;5.238;2023-04-16T01:45:31;8.10;;;2.53;;
68284;SDS011;55114;52.052;5.238;2023-04-16T01:47:58;7.82;;;3.30;;
68284;SDS011;55114;52.052;5.238;2023-04-16T01:50:25;8.80;;;2.92;;
68284;SDS011;55114;52.052;5.238;2023-04-16T01:52:52;9.35;;;3.33;;
68284;SDS011;55114;52.052;5.238;2023-04-16T01:55:20;9.88;;;3.38;;
68284;SDS011;55114;52.052;5.238;2023-04-16T01:57:47;7.22;;;3.13;;
68284;SDS011;55114;52.052;5.238;2023-04-16T02:00:14;11.13;;;3.05;;
68284;SDS011;55114;52.052;5.238;2023-04-16T02:02:41;8.35;;;3.20;;
68284;SDS011;55114;52.052;5.238;2023-04-16T02:05:09;6.93;;;2.80;;
68284;SDS011;55114;52.052;5.238;2023-04-16T02:07:36;9.30;;;3.38;;
68284;SDS011;55114;52.052;5.238;2023-04-16T02:10:03;8.98;;;3.17;;
68284;SDS011;55114;52.052;5.238;2023-04-16T02:12:32;8.52;;;3.00;;
68284;SDS011;55114;52.052;5.238;2023-04-16T02:14:59;8.32;;;3.30;;
68284;SDS011;55114;52.052;5.238;2023-04-16T02:17:26;8.77;;;3.30;;
68284;SDS011;55114;52.052;5.238;2023-04-16T02:19:53;7.18;;;3.20;;
68284;SDS011;55114;52.052;5.238;2023-04-16T02:22:20;6.95;;;2.90;;
68284;SDS011;55114;52.052;5.238;2023-04-16T02:24:48;7.28;;;3.10;;
68284;SDS011;55114;52.052;5.238;2023-04-16T02:27:16;10.60;;;3.28;;
68284;SDS011;55114;52.052;5.238;2023-04-16T02:29:43;9.18;;;3.50;;
68284;SDS011;55114;52.052;5.238;2023-04-16T02:32:10;8.23;;;3.58;;
68284;SDS011;55114;52.052;5.238;2023-04-16T02:34:38;9.25;;;3.00;;
68284;SDS011;55114;52.052;5.238;2023-04-16T02:37:05;9.90;;;3.17;;
68284;SDS011;55114;52.052;5.238;2023-04-16T02:39:33;9.00;;;2.70;;
68284;SDS011;55114;52.052;5.238;2023-04-16T02:42:00;8.05;;;2.90;;
68284;SDS011;55114;52.052;5.238;2023-04-16T02:44:28;10.90;;;3.30;;
68284;SDS011;55114;52.052;5.238;2023-04-16T02:46:55;9.82;;;3.38;;
68284;SDS011;55114;52.052;5.238;2023-04-16T02:49:22;9.88;;;3.33;;
68284;SDS011;55114;52.052;5.238;2023-04-16T02:51:49;10.55;;;3.53;;
68284;SDS011;55114;52.052;5.238;2023-04-16T02:54:17;8.20;;;3.00;;
68284;SDS011;55114;52.052;5.238;2023-04-16T02:56:44;9.25;;;3.08;;
68284;SDS011;55114;52.052;5.238;2023-04-16T02:59:11;9.65;;;2.92;;
68284;SDS011;55114;52.052;5.238;2023-04-16T03:01:38;8.63;;;2.78;;
68284;SDS011;55114;52.052;5.238;2023-04-16T03:04:06;8.80;;;2.75;;
68284;SDS011;55114;52.052;5.238;2023-04-16T03:06:33;8.23;;;2.92;;
68284;SDS011;55114;52.052;5.238;2023-04-16T03:09:00;7.88;;;3.10;;
68284;SDS011;55114;52.052;5.238;2023-04-16T03:11:27;7.35;;;2.80;;
68284;SDS011;55114;52.052;5.238;2023-04-16T03:13:55;9.10;;;3.25;;
68284;SDS011;55114;52.052;5.238;2023-04-16T03:16:22;9.95;;;3.42;;
68284;SDS011;55114;52.052;5.238;2023-04-16T03:18:49;7.18;;;3.22;;
68284;SDS011;55114;52.052;5.238;2023-04-16T03:21:16;8.13;;;3.28;;
68284;SDS011;55114;52.052;5.238;2023-04-16T03:23:43;7.65;;;3.00;;
68284;SDS011;55114;52.052;5.238;2023-04-16T03:26:11;11.10;;;3.40;;
68284;SDS011;55114;52.052;5.238;2023-04-16T03:28:38;11.93;;;3.80;;
68284;SDS011;55114;52.052;5.238;2023-04-16T03:31:05;8.07;;;3.30;;
68284;SDS011;55114;52.052;5.238;2023-04-16T03:33:32;8.55;;;3.10;;
68284;SDS011;55114;52.052;5.238;2023-04-16T03:36:00;10.25;;;3.80;;
68284;SDS011;55114;52.052;5.238;2023-04-16T03:38:27;11.45;;;3.58;;
68284;SDS011;55114;52.052;5.238;2023-04-16T03:40:54;6.95;;;3.03;;
68284;SDS011;55114;52.052;5.238;2023-04-16T03:43:21;8.13;;;3.53;;
68284;SDS011;55114;52.052;5.238;2023-04-16T03:45:48;10.10;;;3.53;;
68284;SDS011;55114;52.052;5.238;2023-04-16T03:48:16;10.60;;;3.60;;
68284;SDS011;55114;52.052;5.238;2023-04-16T03:50:46;9.38;;;3.63;;
68284;SDS011;55114;52.052;5.238;2023-04-16T03:53:13;10.85;;;3.88;;
68284;SDS011;55114;52.052;5.238;2023-04-16T03:55:41;8.35;;;3.53;;
68284;SDS011;55114;52.052;5.238;2023-04-16T03:58:08;16.02;;;3.97;;
68284;SDS011;55114;52.052;5.238;2023-04-16T04:00:35;10.63;;;3.78;;
68284;SDS011;55114;52.052;5.238;2023-04-16T04:03:02;11.32;;;3.72;;
68284;SDS011;55114;52.052;5.238;2023-04-16T04:05:30;13.90;;;3.50;;
68284;SDS011;55114;52.052;5.238;2023-04-16T04:07:57;13.38;;;4.03;;
68284;SDS011;55114;52.052;5.238;2023-04-16T04:10:24;10.70;;;4.10;;
68284;SDS011;55114;52.052;5.238;2023-04-16T04:12:51;14.80;;;4.35;;
68284;SDS011;55114;52.052;5.238;2023-04-16T04:15:19;9.27;;;4.00;;
68284;SDS011;55114;52.052;5.238;2023-04-16T04:17:46;12.93;;;4.35;;
68284;SDS011;55114;52.052;5.238;2023-04-16T04:20:13;9.90;;;4.30;;
68284;SDS011;55114;52.052;5.238;2023-04-16T04:22:41;12.07;;;4.70;;
68284;SDS011;55114;52.052;5.238;2023-04-16T04:25:09;10.57;;;4.25;;
68284;SDS011;55114;52.052;5.238;2023-04-16T04:27:36;15.40;;;4.95;;
68284;SDS011;55114;52.052;5.238;2023-04-16T04:30:03;13.20;;;5.00;;
68284;SDS011;55114;52.052;5.238;2023-04-16T04:32:31;13.75;;;5.18;;
68284;SDS011;55114;52.052;5.238;2023-04-16T04:34:59;12.00;;;4.72;;
68284;SDS011;55114;52.052;5.238;2023-04-16T04:37:27;15.68;;;5.38;;
68284;SDS011;55114;52.052;5.238;2023-04-16T04:39:54;12.68;;;4.53;;
68284;SDS011;55114;52.052;5.238;2023-04-16T04:42:21;14.70;;;5.40;;
68284;SDS011;55114;52.052;5.238;2023-04-16T04:44:49;17.83;;;5.78;;
68284;SDS011;55114;52.052;5.238;2023-04-16T04:47:16;14.55;;;5.55;;
68284;SDS011;55114;52.052;5.238;2023-04-16T04:49:43;16.73;;;5.28;;
68284;SDS011;55114;52.052;5.238;2023-04-16T04:52:10;14.90;;;5.38;;
68284;SDS011;55114;52.052;5.238;2023-04-16T04:54:38;13.77;;;5.25;;
68284;SDS011;55114;52.052;5.238;2023-04-16T04:57:07;14.02;;;5.10;;
68284;SDS011;55114;52.052;5.238;2023-04-16T04:59:34;17.65;;;5.90;;
68284;SDS011;55114;52.052;5.238;2023-04-16T05:02:01;17.98;;;5.80;;
68284;SDS011;55114;52.052;5.238;2023-04-16T05:04:29;18.85;;;5.82;;
68284;SDS011;55114;52.052;5.238;2023-04-16T05:06:56;20.52;;;5.95;;
68284;SDS011;55114;52.052;5.238;2023-04-16T05:09:23;19.55;;;5.95;;
68284;SDS011;55114;52.052;5.238;2023-04-16T05:11:50;19.67;;;6.70;;
68284;SDS011;55114;52.052;5.238;2023-04-16T05:14:18;17.55;;;5.75;;
68284;SDS011;55114;52.052;5.238;2023-04-16T05:16:45;16.42;;;6.30;;
68284;SDS011;55114;52.052;5.238;2023-04-16T05:19:12;19.80;;;6.68;;
68284;SDS011;55114;52.052;5.238;2023-04-16T05:21:39;19.67;;;6.15;;
68284;SDS011;55114;52.052;5.238;2023-04-16T05:24:06;19.45;;;6.82;;
68284;SDS011;55114;52.052;5.238;2023-04-16T05:26:34;23.58;;;6.90;;
68284;SDS011;55114;52.052;5.238;2023-04-16T05:29:01;27.85;;;7.05;;
68284;SDS011;55114;52.052;5.238;2023-04-16T05:31:28;21.90;;;7.00;;
68284;SDS011;55114;52.052;5.238;2023-04-16T05:33:55;23.85;;;7.25;;
68284;SDS011;55114;52.052;5.238;2023-04-16T05:36:23;26.02;;;7.65;;
68284;SDS011;55114;52.052;5.238;2023-04-16T05:38:50;24.30;;;7.30;;
68284;SDS011;55114;52.052;5.238;2023-04-16T05:41:17;26.08;;;8.05;;
68284;SDS011;55114;52.052;5.238;2023-04-16T05:43:44;26.13;;;8.13;;
68284;SDS011;55114;52.052;5.238;2023-04-16T05:46:11;24.58;;;7.45;;
68284;SDS011;55114;52.052;5.238;2023-04-16T05:48:39;24.05;;;7.85;;
68284;SDS011;55114;52.052;5.238;2023-04-16T05:51:06;25.15;;;7.72;;
68284;SDS011;55114;52.052;5.238;2023-04-16T05:53:33;27.60;;;7.70;;
68284;SDS011;55114;52.052;5.238;2023-04-16T05:56:00;26.40;;;7.85;;
68284;SDS011;55114;52.052;5.238;2023-04-16T05:58:27;18.77;;;6.75;;
68284;SDS011;55114;52.052;5.238;2023-04-16T06:00:55;27.85;;;8.23;;
68284;SDS011;55114;52.052;5.238;2023-04-16T06:03:22;25.02;;;8.63;;
68284;SDS011;55114;52.052;5.238;2023-04-16T06:05:49;29.95;;;7.85;;
68284;SDS011;55114;52.052;5.238;2023-04-16T06:08:16;24.80;;;7.88;;
68284;SDS011;55114;52.052;5.238;2023-04-16T06:10:45;23.17;;;7.22;;
68284;SDS011;55114;52.052;5.238;2023-04-16T06:13:12;21.83;;;6.95;;
68284;SDS011;55114;52.052;5.238;2023-04-16T06:15:39;19.83;;;7.05;;
68284;SDS011;55114;52.052;5.238;2023-04-16T06:18:07;19.48;;;7.10;;
68284;SDS011;55114;52.052;5.238;2023-04-16T06:20:34;21.13;;;7.38;;
68284;SDS011;55114;52.052;5.238;2023-04-16T06:23:01;26.13;;;7.50;;
68284;SDS011;55114;52.052;5.238;2023-04-16T06:25:29;24.60;;;7.80;;
68284;SDS011;55114;52.052;5.238;2023-04-16T06:27:56;21.63;;;7.88;;
68284;SDS011;55114;52.052;5.238;2023-04-16T06:30:23;23.83;;;8.15;;
68284;SDS011;55114;52.052;5.238;2023-04-16T06:32:50;24.98;;;7.53;;
68284;SDS011;55114;52.052;5.238;2023-04-16T06:35:18;22.92;;;7.38;;
68284;SDS011;55114;52.052;5.238;2023-04-16T06:37:45;19.23;;;6.88;;
68284;SDS011;55114;52.052;5.238;2023-04-16T06:40:12;21.15;;;7.18;;
68284;SDS011;55114;52.052;5.238;2023-04-16T06:42:39;23.20;;;7.05;;
68284;SDS011;55114;52.052;5.238;2023-04-16T06:45:10;19.10;;;7.72;;
68284;SDS011;55114;52.052;5.238;2023-04-16T06:47:37;18.63;;;6.68;;
68284;SDS011;55114;52.052;5.238;2023-04-16T06:50:05;18.15;;;7.50;;
68284;SDS011;55114;52.052;5.238;2023-04-16T06:52:32;21.85;;;6.70;;
68284;SDS011;55114;52.052;5.238;2023-04-16T06:55:00;21.75;;;6.80;;
68284;SDS011;55114;52.052;5.238;2023-04-16T06:57:27;18.67;;;6.15;;
68284;SDS011;55114;52.052;5.238;2023-04-16T06:59:54;17.48;;;6.70;;
68284;SDS011;55114;52.052;5.238;2023-04-16T07:02:22;16.60;;;6.40;;
68284;SDS011;55114;52.052;5.238;2023-04-16T07:04:50;18.33;;;6.82;;
68284;SDS011;55114;52.052;5.238;2023-04-16T07:07:17;16.50;;;6.43;;
68284;SDS011;55114;52.052;5.238;2023-04-16T07:09:44;17.20;;;6.60;;
68284;SDS011;55114;52.052;5.238;2023-04-16T07:12:12;17.40;;;6.68;;
68284;SDS011;55114;52.052;5.238;2023-04-16T07:14:39;19.75;;;6.68;;
68284;SDS011;55114;52.052;5.238;2023-04-16T07:17:07;17.50;;;6.30;;
68284;SDS011;55114;52.052;5.238;2023-04-16T07:19:34;15.32;;;6.38;;
68284;SDS011;55114;52.052;5.238;2023-04-16T07:22:02;15.43;;;6.20;;
68284;SDS011;55114;52.052;5.238;2023-04-16T07:24:29;18.20;;;6.65;;
68284;SDS011;55114;52.052;5.238;2023-04-16T07:26:57;19.00;;;6.35;;
68284;SDS011;55114;52.052;5.238;2023-04-16T07:29:24;18.60;;;6.35;;
68284;SDS011;55114;52.052;5.238;2023-04-16T07:31:51;14.90;;;6.18;;
68284;SDS011;55114;52.052;5.238;2023-04-16T07:34:19;21.35;;;6.85;;
68284;SDS011;55114;52.052;5.238;2023-04-16T07:36:46;20.67;;;6.60;;
68284;SDS011;55114;52.052;5.238;2023-04-16T07:39:13;14.88;;;6.18;;
68284;SDS011;55114;52.052;5.238;2023-04-16T07:41:41;17.60;;;6.35;;
68284;SDS011;55114;52.052;5.238;2023-04-16T07:44:09;17.58;;;6.57;;
68284;SDS011;55114;52.052;5.238;2023-04-16T07:46:36;17.10;;;6.70;;
68284;SDS011;55114;52.052;5.238;2023-04-16T07:49:12;16.33;;;6.45;;
68284;SDS011;55114;52.052;5.238;2023-04-16T07:51:39;18.48;;;6.47;;
68284;SDS011;55114;52.052;5.238;2023-04-16T07:54:07;14.47;;;6.27;;
68284;SDS011;55114;52.052;5.238;2023-04-16T07:56:34;15.13;;;6.05;;
68284;SDS011;55114;52.052;5.238;2023-04-16T07:59:01;15.55;;;6.40;;
68284;SDS011;55114;52.052;5.238;2023-04-16T08:01:47;15.43;;;6.32;;
68284;SDS011;55114;52.052;5.238;2023-04-16T08:04:14;15.55;;;6.15;;
68284;SDS011;55114;52.052;5.238;2023-04-16T08:06:48;14.70;;;6.63;;
68284;SDS011;55114;52.052;5.238;2023-04-16T08:09:17;14.05;;;5.68;;
68284;SDS011;55114;52.052;5.238;2023-04-16T08:11:45;16.70;;;5.95;;
68284;SDS011;55114;52.052;5.238;2023-04-16T08:14:15;13.50;;;5.72;;
68284;SDS011;55114;52.052;5.238;2023-04-16T08:16:42;13.07;;;5.30;;
68284;SDS011;55114;52.052;5.238;2023-04-16T08:19:10;13.70;;;5.40;;
68284;SDS011;55114;52.052;5.238;2023-04-16T08:21:37;18.98;;;7.30;;
68284;SDS011;55114;52.052;5.238;2023-04-16T08:24:04;17.00;;;6.72;;
68284;SDS011;55114;52.052;5.238;2023-04-16T08:26:32;13.85;;;5.70;;
68284;SDS011;55114;52.052;5.238;2023-04-16T08:28:59;17.42;;;6.57;;
68284;SDS011;55114;52.052;5.238;2023-04-16T08:31:26;16.30;;;5.93;;
68284;SDS011;55114;52.052;5.238;2023-04-16T08:33:53;17.30;;;5.68;;
68284;SDS011;55114;52.052;5.238;2023-04-16T08:36:21;13.80;;;6.00;;
68284;SDS011;55114;52.052;5.238;2023-04-16T08:38:48;12.07;;;5.93;;
68284;SDS011;55114;52.052;5.238;2023-04-16T08:41:17;14.18;;;5.45;;
68284;SDS011;55114;52.052;5.238;2023-04-16T08:43:44;13.10;;;6.00;;
68284;SDS011;55114;52.052;5.238;2023-04-16T08:46:15;13.43;;;6.22;;
68284;SDS011;55114;52.052;5.238;2023-04-16T08:48:43;12.88;;;5.40;;
68284;SDS011;55114;52.052;5.238;2023-04-16T08:51:12;12.63;;;5.43;;
68284;SDS011;55114;52.052;5.238;2023-04-16T08:53:53;11.90;;;5.75;;
68284;SDS011;55114;52.052;5.238;2023-04-16T08:56:25;11.90;;;5.30;;
68284;SDS011;55114;52.052;5.238;2023-04-16T08:58:53;10.55;;;4.93;;
68284;SDS011;55114;52.052;5.238;2023-04-16T09:01:20;12.25;;;5.07;;
68284;SDS011;55114;52.052;5.238;2023-04-16T09:03:48;12.02;;;5.30;;
68284;SDS011;55114;52.052;5.238;2023-04-16T09:06:16;11.90;;;5.38;;
68284;SDS011;55114;52.052;5.238;2023-04-16T09:08:44;13.20;;;5.50;;
68284;SDS011;55114;52.052;5.238;2023-04-16T09:11:16;10.10;;;4.53;;
68284;SDS011;55114;52.052;5.238;2023-04-16T09:13:44;10.68;;;5.15;;
68284;SDS011;55114;52.052;5.238;2023-04-16T09:16:12;11.50;;;5.07;;
68284;SDS011;55114;52.052;5.238;2023-04-16T09:18:40;10.98;;;5.10;;
68284;SDS011;55114;52.052;5.238;2023-04-16T09:21:08;10.97;;;4.70;;
68284;SDS011;55114;52.052;5.238;2023-04-16T09:23:36;10.85;;;4.88;;
68284;SDS011;55114;52.052;5.238;2023-04-16T09:26:04;10.68;;;4.57;;
68284;SDS011;55114;52.052;5.238;2023-04-16T09:28:41;11.82;;;4.70;;
68284;SDS011;55114;52.052;5.238;2023-04-16T09:31:10;9.20;;;4.22;;
68284;SDS011;55114;52.052;5.238;2023-04-16T09:33:38;10.50;;;5.03;;
68284;SDS011;55114;52.052;5.238;2023-04-16T09:36:06;12.30;;;4.60;;
68284;SDS011;55114;52.052;5.238;2023-04-16T09:38:50;8.65;;;4.07;;
68284;SDS011;55114;52.052;5.238;2023-04-16T09:41:24;8.10;;;4.22;;
68284;SDS011;55114;52.052;5.238;2023-04-16T09:46:23;10.47;;;4.37;;
68284;SDS011;55114;52.052;5.238;2023-04-16T09:48:50;8.43;;;3.70;;
68284;SDS011;55114;52.052;5.238;2023-04-16T09:51:18;8.60;;;3.60;;
68284;SDS011;55114;52.052;5.238;2023-04-16T09:53:45;7.75;;;3.58;;
68284;SDS011;55114;52.052;5.238;2023-04-16T09:56:12;7.78;;;3.63;;
68284;SDS011;55114;52.052;5.238;2023-04-16T09:58:40;10.97;;;3.97;;
68284;SDS011;55114;52.052;5.238;2023-04-16T10:01:08;8.60;;;3.80;;
68284;SDS011;55114;52.052;5.238;2023-04-16T10:03:36;8.20;;;3.50;;
68284;SDS011;55114;52.052;5.238;2023-04-16T10:06:08;6.65;;;3.20;;
68284;SDS011;55114;52.052;5.238;2023-04-16T10:08:43;7.22;;;3.38;;
68284;SDS011;55114;52.052;5.238;2023-04-16T10:11:12;8.43;;;3.50;;
68284;SDS011;55114;52.052;5.238;2023-04-16T10:13:39;7.32;;;3.40;;
68284;SDS011;55114;52.052;5.238;2023-04-16T10:16:06;7.90;;;3.55;;
68284;SDS011;55114;52.052;5.238;2023-04-16T10:18:41;11.05;;;3.65;;
68284;SDS011;55114;52.052;5.238;2023-04-16T10:21:08;11.38;;;4.20;;
68284;SDS011;55114;52.052;5.238;2023-04-16T10:23:40;8.07;;;3.63;;
68284;SDS011;55114;52.052;5.238;2023-04-16T10:26:08;7.75;;;3.67;;
68284;SDS011;55114;52.052;5.238;2023-04-16T10:28:35;9.23;;;3.35;;
68284;SDS011;55114;52.052;5.238;2023-04-16T10:31:03;7.15;;;3.33;;
68284;SDS011;55114;52.052;5.238;2023-04-16T10:33:32;9.27;;;3.50;;
68284;SDS011;55114;52.052;5.238;2023-04-16T10:41:12;8.68;;;4.13;;
68284;SDS011;55114;52.052;5.238;2023-04-16T10:43:41;8.60;;;3.80;;
68284;SDS011;55114;52.052;5.238;2023-04-16T10:46:24;7.38;;;3.40;;
68284;SDS011;55114;52.052;5.238;2023-04-16T10:48:53;8.10;;;3.70;;
68284;SDS011;55114;52.052;5.238;2023-04-16T10:51:24;9.63;;;3.65;;
68284;SDS011;55114;52.052;5.238;2023-04-16T10:53:53;9.57;;;3.55;;
68284;SDS011;55114;52.052;5.238;2023-04-16T10:56:22;7.80;;;3.58;;
68284;SDS011;55114;52.052;5.238;2023-04-16T10:58:49;8.93;;;3.67;;
68284;SDS011;55114;52.052;5.238;2023-04-16T11:01:19;8.23;;;3.63;;
68284;SDS011;55114;52.052;5.238;2023-04-16T11:03:52;7.22;;;3.60;;
68284;SDS011;55114;52.052;5.238;2023-04-16T11:06:23;9.27;;;3.80;;
68284;SDS011;55114;52.052;5.238;2023-04-16T11:08:51;8.32;;;3.78;;
68284;SDS011;55114;52.052;5.238;2023-04-16T11:11:36;8.90;;;4.15;;
68284;SDS011;55114;52.052;5.238;2023-04-16T11:14:04;9.73;;;3.80;;
68284;SDS011;55114;52.052;5.238;2023-04-16T11:16:32;7.97;;;3.60;;
68284;SDS011;55114;52.052;5.238;2023-04-16T11:18:59;8.27;;;3.70;;
68284;SDS011;55114;52.052;5.238;2023-04-16T11:21:26;8.95;;;4.15;;
68284;SDS011;55114;52.052;5.238;2023-04-16T11:23:56;8.23;;;3.75;;
68284;SDS011;55114;52.052;5.238;2023-04-16T11:26:25;9.33;;;4.03;;
68284;SDS011;55114;52.052;5.238;2023-04-16T11:28:52;8.90;;;3.75;;
68284;SDS011;55114;52.052;5.238;2023-04-16T11:31:21;9.98;;;3.90;;
68284;SDS011;55114;52.052;5.238;2023-04-16T11:33:49;11.05;;;4.60;;
68284;SDS011;55114;52.052;5.238;2023-04-16T11:36:16;10.13;;;4.18;;
68284;SDS011;55114;52.052;5.238;2023-04-16T11:38:44;10.13;;;4.20;;
68284;SDS011;55114;52.052;5.238;2023-04-16T11:41:17;10.80;;;4.00;;
68284;SDS011;55114;52.052;5.238;2023-04-16T11:43:44;11.55;;;4.00;;
68284;SDS011;55114;52.052;5.238;2023-04-16T11:46:12;11.90;;;4.70;;
68284;SDS011;55114;52.052;5.238;2023-04-16T11:48:53;15.13;;;4.93;;
68284;SDS011;55114;52.052;5.238;2023-04-16T11:51:21;11.17;;;4.77;;
68284;SDS011;55114;52.052;5.238;2023-04-16T11:53:52;12.98;;;4.45;;
68284;SDS011;55114;52.052;5.238;2023-04-16T11:56:33;12.65;;;5.40;;
68284;SDS011;55114;52.052;5.238;2023-04-16T11:59:10;10.48;;;5.25;;
68284;SDS011;55114;52.052;5.238;2023-04-16T12:01:39;13.27;;;4.90;;
68284;SDS011;55114;52.052;5.238;2023-04-16T12:04:07;12.77;;;5.60;;
68284;SDS011;55114;52.052;5.238;2023-04-16T12:06:34;13.23;;;5.40;;
68284;SDS011;55114;52.052;5.238;2023-04-16T12:11:48;15.68;;;6.78;;
68284;SDS011;55114;52.052;5.238;2023-04-16T12:14:16;15.15;;;5.93;;
68284;SDS011;55114;52.052;5.238;2023-04-16T12:16:43;16.50;;;5.90;;
68284;SDS011;55114;52.052;5.238;2023-04-16T12:19:11;13.30;;;5.72;;
68284;SDS011;55114;52.052;5.238;2023-04-16T12:24:06;19.58;;;5.97;;
68284;SDS011;55114;52.052;5.238;2023-04-16T12:26:38;16.33;;;6.22;;
68284;SDS011;55114;52.052;5.238;2023-04-16T12:29:21;14.60;;;5.87;;
68284;SDS011;55114;52.052;5.238;2023-04-16T12:31:49;15.25;;;5.88;;
68284;SDS011;55114;52.052;5.238;2023-04-16T12:34:18;20.17;;;6.57;;
68284;SDS011;55114;52.052;5.238;2023-04-16T12:36:45;15.10;;;6.00;;
68284;SDS011;55114;52.052;5.238;2023-04-16T12:39:13;15.25;;;6.20;;
68284;SDS011;55114;52.052;5.238;2023-04-16T12:41:42;18.17;;;6.67;;
68284;SDS011;55114;52.052;5.238;2023-04-16T12:44:10;16.58;;;6.70;;
68284;SDS011;55114;52.052;5.238;2023-04-16T12:46:38;15.50;;;6.70;;
68284;SDS011;55114;52.052;5.238;2023-04-16T12:49:06;17.40;;;7.03;;
68284;SDS011;55114;52.052;5.238;2023-04-16T12:51:34;17.88;;;6.30;;
68284;SDS011;55114;52.052;5.238;2023-04-16T12:54:02;16.83;;;6.27;;
68284;SDS011;55114;52.052;5.238;2023-04-16T12:56:30;20.27;;;7.70;;
68284;SDS011;55114;52.052;5.238;2023-04-16T12:58:57;19.20;;;8.10;;
68284;SDS011;55114;52.052;5.238;2023-04-16T13:01:25;16.95;;;7.57;;
68284;SDS011;55114;52.052;5.238;2023-04-16T13:03:52;12.43;;;6.32;;
68284;SDS011;55114;52.052;5.238;2023-04-16T13:06:19;13.83;;;6.10;;
68284;SDS011;55114;52.052;5.238;2023-04-16T13:08:47;15.73;;;6.00;;
68284;SDS011;55114;52.052;5.238;2023-04-16T13:11:15;15.07;;;6.45;;
68284;SDS011;55114;52.052;5.238;2023-04-16T13:13:44;16.23;;;8.15;;
68284;SDS011;55114;52.052;5.238;2023-04-16T13:16:11;14.02;;;5.63;;
68284;SDS011;55114;52.052;5.238;2023-04-16T13:18:39;18.97;;;8.80;;
68284;SDS011;55114;52.052;5.238;2023-04-16T13:21:07;31.88;;;8.38;;
68284;SDS011;55114;52.052;5.238;2023-04-16T13:23:34;39.45;;;8.52;;
68284;SDS011;55114;52.052;5.238;2023-04-16T13:26:01;33.08;;;8.27;;
68284;SDS011;55114;52.052;5.238;2023-04-16T13:28:29;20.13;;;7.50;;
68284;SDS011;55114;52.052;5.238;2023-04-16T13:30:56;18.63;;;7.50;;
68284;SDS011;55114;52.052;5.238;2023-04-16T13:33:24;11.93;;;6.15;;
68284;SDS011;55114;52.052;5.238;2023-04-16T13:35:51;17.05;;;6.75;;
68284;SDS011;55114;52.052;5.238;2023-04-16T13:38:18;15.82;;;8.23;;
68284;SDS011;55114;52.052;5.238;2023-04-16T13:40:46;35.80;;;8.35;;
68284;SDS011;55114;52.052;5.238;2023-04-16T13:43:13;20.27;;;7.73;;
68284;SDS011;55114;52.052;5.238;2023-04-16T13:45:42;15.38;;;7.45;;
68284;SDS011;55114;52.052;5.238;2023-04-16T13:48:09;55.45;;;11.45;;
68284;SDS011;55114;52.052;5.238;2023-04-16T13:50:37;13.80;;;6.45;;
68284;SDS011;55114;52.052;5.238;2023-04-16T13:53:04;18.80;;;8.35;;
68284;SDS011;55114;52.052;5.238;2023-04-16T13:55:31;13.67;;;7.27;;
68284;SDS011;55114;52.052;5.238;2023-04-16T13:57:58;17.13;;;6.70;;
68284;SDS011;55114;52.052;5.238;2023-04-16T14:00:26;15.98;;;6.63;;
68284;SDS011;55114;52.052;5.238;2023-04-16T14:02:53;12.57;;;6.63;;
68284;SDS011;55114;52.052;5.238;2023-04-16T14:05:20;31.83;;;9.30;;
68284;SDS011;55114;52.052;5.238;2023-04-16T14:07:51;19.67;;;8.93;;
68284;SDS011;55114;52.052;5.238;2023-04-16T14:10:19;18.58;;;7.00;;
68284;SDS011;55114;52.052;5.238;2023-04-16T14:12:46;13.50;;;6.95;;
68284;SDS011;55114;52.052;5.238;2023-04-16T14:15:13;14.35;;;6.90;;
68284;SDS011;55114;52.052;5.238;2023-04-16T14:17:41;27.63;;;8.77;;
68284;SDS011;55114;52.052;5.238;2023-04-16T14:20:12;46.70;;;10.67;;
68284;SDS011;55114;52.052;5.238;2023-04-16T14:22:40;27.90;;;13.30;;
68284;SDS011;55114;52.052;5.238;2023-04-16T14:25:09;24.95;;;12.95;;
68284;SDS011;55114;52.052;5.238;2023-04-16T14:27:36;34.47;;;17.20;;
68284;SDS011;55114;52.052;5.238;2023-04-16T14:30:04;29.50;;;15.52;;
68284;SDS011;55114;52.052;5.238;2023-04-16T14:32:31;63.80;;;14.27;;
68284;SDS011;55114;52.052;5.238;2023-04-16T14:34:58;19.88;;;7.88;;
68284;SDS011;55114;52.052;5.238;2023-04-16T14:37:25;22.95;;;10.50;;
68284;SDS011;55114;52.052;5.238;2023-04-16T14:39:53;17.42;;;9.07;;
68284;SDS011;55114;52.052;5.238;2023-04-16T14:42:20;16.05;;;8.30;;
68284;SDS011;55114;52.052;5.238;2023-04-16T14:44:47;15.60;;;8.03;;
68284;SDS011;55114;52.052;5.238;2023-04-16T14:47:15;13.70;;;7.90;;
68284;SDS011;55114;52.052;5.238;2023-04-16T14:49:42;16.50;;;8.18;;
68284;SDS011;55114;52.052;5.238;2023-04-16T14:52:09;21.20;;;9.80;;
68284;SDS011;55114;52.052;5.238;2023-04-16T14:54:36;18.05;;;10.30;;
68284;SDS011;55114;52.052;5.238;2023-04-16T14:57:03;20.97;;;8.83;;
68284;SDS011;55114;52.052;5.238;2023-04-16T14:59:31;39.95;;;24.10;;